Time,TemperatureF,DewpointF,PressureIn,WindDirection,WindDirectionDegrees,WindSpeedMPH,WindSpeedGustMPH,Humidity,HourlyPrecipIn,Conditions,Clouds,dailyrainin,SolarRadiationWatts/m^2,SoftwareType,DateUTC
2013-09-20 01:12:00,69.0,65.0,30.03,SSE,151,3.0,4.0,87,-99.99,,,-99.99,0.000000,,2013-09-20 07:12:00,
2013-09-20 01:42:00,69.0,65.0,30.02,South,175,4.0,5.0,87,-99.99,,,-99.99,0.000000,,2013-09-20 07:42:00,
2013-09-20 02:42:00,66.0,64.0,30.01,West,261,4.0,5.0,92,-99.99,,,-99.99,0.000000,,2013-09-20 08:42:00,
2013-09-20 02:52:00,66.0,63.0,30.01,West,270,4.0,6.0,88,-99.99,,,-99.99,0.000000,,2013-09-20 08:52:00,
2013-09-20 03:01:00,66.0,63.0,30.01,West,270,4.0,6.0,88,-99.99,,,-99.99,0.000000,,2013-09-20 09:01:00,
2013-09-20 03:22:00,67.0,63.0,30.01,NW,310,3.0,6.0,86,-99.99,,,-99.99,0.000000,,2013-09-20 09:22:00,
2013-09-20 03:43:00,65.0,63.0,30.01,East,93,6.0,9.0,93,-99.99,,,-99.99,0.000000,,2013-09-20 09:43:00,
2013-09-20 04:42:00,65.0,64.0,30.03,ESE,105,7.0,10.0,95,-99.99,,,-99.99,0.000000,,2013-09-20 10:42:00,
2013-09-20 05:42:00,64.0,63.0,30.05,WNW,297,6.0,8.0,97,-99.99,,,-99.99,0.000000,,2013-09-20 11:42:00,
2013-09-20 05:52:00,64.0,63.0,30.05,NW,310,4.0,6.0,97,-99.99,,,-99.99,0.000000,,2013-09-20 11:52:00,
2013-09-20 06:02:00,64.0,63.0,30.05,NW,310,4.0,6.0,97,-99.99,,,-99.99,0.000000,,2013-09-20 12:02:00,
2013-09-20 06:42:00,63.0,63.0,30.07,NNE,23,6.0,9.0,98,-99.99,,,-99.99,0.000000,,2013-09-20 12:42:00,
2013-09-20 07:42:00,64.0,62.0,30.08,NE,41,6.0,8.0,95,-99.99,,,-99.99,13.250000,,2013-09-20 13:42:00,
2013-09-20 09:22:00,70.0,63.0,30.09,North,349,5.0,8.0,79,-99.99,,,-99.99,347.970001,,2013-09-20 15:22:00,
2013-09-20 09:44:00,71.0,62.0,30.10,NNE,16,4.0,6.0,74,-99.99,,,-99.99,394.690002,,2013-09-20 15:44:00,
2013-09-20 10:42:00,74.0,61.0,30.11,North,8,6.0,9.0,63,-99.99,,,-99.99,519.510010,,2013-09-20 16:42:00,
2013-09-20 10:53:00,74.0,60.0,30.11,North,3,6.0,10.0,60,-99.99,,,-99.99,600.400024,,2013-09-20 16:53:00,
2013-09-20 11:03:00,74.0,60.0,30.11,North,3,6.0,10.0,60,-99.99,,,-99.99,600.400024,,2013-09-20 17:03:00,
2013-09-20 11:42:00,76.0,58.0,30.11,NE,35,7.0,11.0,52,-99.99,,,-99.99,690.359985,,2013-09-20 17:42:00,
2013-09-20 12:12:00,76.0,57.0,30.11,NNE,29,6.0,10.0,51,-99.99,,,-99.99,714.070007,,2013-09-20 18:12:00,
2013-09-20 13:42:00,80.0,60.0,30.10,SSE,152,6.0,10.0,50,-99.99,,,-99.99,795.659973,,2013-09-20 19:42:00,
2013-09-20 14:12:00,81.0,55.0,30.09,SSE,155,9.0,15.0,40,-99.99,,,-99.99,781.710022,,2013-09-20 20:12:00,
2013-09-20 14:42:00,81.0,54.0,30.08,SE,138,8.0,16.0,40,-99.99,,,-99.99,743.359985,,2013-09-20 20:42:00,
2013-09-20 15:12:00,81.0,54.0,30.07,SSE,155,10.0,19.0,38,-99.99,,,-99.99,693.849976,,2013-09-20 21:12:00,
2013-09-20 15:44:00,82.0,54.0,30.07,SE,142,9.0,17.0,37,-99.99,,,-99.99,644.340027,,2013-09-20 21:44:00,
2013-09-20 15:55:00,82.0,54.0,30.07,SE,139,11.0,18.0,38,-99.99,,,-99.99,612.260010,,2013-09-20 21:55:00,
2013-09-20 16:14:00,82.0,54.0,30.06,SSE,158,10.0,16.0,38,-99.99,,,-99.99,570.419983,,2013-09-20 22:14:00,
2013-09-20 16:44:00,82.0,53.0,30.05,SSE,153,9.0,18.0,37,-99.99,,,-99.99,480.459991,,2013-09-20 22:44:00,
2013-09-20 17:53:00,81.0,54.0,30.05,SE,141,9.0,16.0,38,-99.99,,,-99.99,261.500000,,2013-09-20 23:53:00,
2013-09-20 18:02:00,81.0,54.0,30.05,SE,141,9.0,16.0,38,-99.99,,,-99.99,261.500000,,2013-09-21 00:02:00,
2013-09-20 18:21:00,81.0,53.0,30.06,SE,125,11.0,18.0,39,-99.99,,,-99.99,192.460007,,2013-09-21 00:21:00,
2013-09-20 18:42:00,80.0,53.0,30.06,SE,124,11.0,18.0,39,-99.99,,,-99.99,112.269997,,2013-09-21 00:42:00,
2013-09-20 20:42:00,75.0,56.0,30.10,SE,135,9.0,17.0,50,-99.99,,,-99.99,0.000000,,2013-09-21 02:42:00,
2013-09-20 21:22:00,74.0,56.0,30.12,SSE,158,7.0,12.0,54,-99.99,,,-99.99,0.000000,,2013-09-21 03:22:00,
2013-09-20 21:44:00,73.0,57.0,30.13,South,169,7.0,13.0,56,-99.99,,,-99.99,0.000000,,2013-09-21 03:44:00,
2013-09-20 21:55:00,73.0,57.0,30.13,South,169,7.0,13.0,56,-99.99,,,-99.99,0.000000,,2013-09-21 03:55:00,
2013-09-20 22:04:00,73.0,57.0,30.13,South,169,7.0,13.0,56,-99.99,,,-99.99,0.000000,,2013-09-21 04:04:00,
2013-09-20 22:43:00,71.0,59.0,30.14,SSW,204,6.0,11.0,67,-99.99,,,-99.99,0.000000,,2013-09-21 04:43:00,
2013-09-20 23:23:00,69.0,61.0,30.14,SSW,204,6.0,10.0,76,-99.99,,,-99.99,0.000000,,2013-09-21 05:23:00,
2013-09-20 23:43:00,69.0,61.0,30.14,SSW,193,6.0,10.0,77,-99.99,,,-99.99,0.000000,,2013-09-21 05:43:00,
2013-09-20 23:53:00,68.0,61.0,30.14,South,185,6.0,10.0,76,-99.99,,,-99.99,0.000000,,2013-09-21 05:53:00,